Time;durP1;ratioP1;P1;durP2;ratioP2;P2;SDS_P1;SDS_P2;PMS_P1;PMS_P2;Temp;Humidity;BMP_temperature;BMP_pressure;BME280_temperature;BME280_humidity;BME280_pressure;Samples;Min_cycle;Max_cycle;Signal;HPM_P1;HPM_P2
2024/02/19 00:01:09;;;;;;;8.63;3.10;;;;;;;16.58;53.04;102430.13;4926998;29;20023;-61
2024/02/19 00:03:35;;;;;;;13.00;3.03;;;;;;;16.63;51.96;102429.75;4925397;29;20040;-61
2024/02/19 00:06:00;;;;;;;12.27;4.05;;;;;;;16.63;52.27;102429.75;4925984;29;20028;-60
2024/02/19 00:08:26;;;;;;;12.85;2.75;;;;;;;16.62;52.29;102431.59;4925809;29;20519;-61
2024/02/19 00:10:51;;;;;;;15.57;3.28;;;;;;;16.64;52.56;102429.63;4926992;29;20028;-60
2024/02/19 00:13:18;;;;;;;7.32;2.92;;;;;;;16.63;52.75;102433.31;4909992;29;20032;-60
2024/02/19 00:15:43;;;;;;;14.95;3.00;;;;;;;16.64;52.58;102435.03;4925702;29;20489;-60
2024/02/19 00:18:09;;;;;;;7.40;2.20;;;;;;;16.59;52.77;102431.84;4927990;28;20539;-60
2024/02/19 00:20:34;;;;;;;18.70;3.00;;;;;;;16.63;52.59;102437.88;4924247;29;20055;-60
2024/02/19 00:22:59;;;;;;;13.10;3.03;;;;;;;16.60;52.13;102444.41;4926951;29;20512;-60
2024/02/19 00:25:25;;;;;;;10.50;2.72;;;;;;;16.62;53.44;102437.00;4926325;29;20028;-60
2024/02/19 00:27:50;;;;;;;14.07;2.70;;;;;;;16.61;52.10;102440.69;4926539;29;20095;-60
2024/02/19 00:30:16;;;;;;;11.85;2.83;;;;;;;16.60;52.94;102444.41;4925130;29;20036;-60
2024/02/19 00:32:42;;;;;;;8.10;2.83;;;;;;;16.63;52.56;102441.44;4926830;28;20024;-60
2024/02/19 00:35:08;;;;;;;7.70;2.53;;;;;;;16.64;52.50;102440.44;4927631;28;20043;-60
2024/02/19 00:37:33;;;;;;;10.27;2.95;;;;;;;16.64;52.35;102445.84;4926669;29;20039;-60
2024/02/19 00:39:58;;;;;;;13.93;3.22;;;;;;;16.65;52.56;102447.56;4927015;29;20036;-60
2024/02/19 00:42:24;;;;;;;13.88;2.75;;;;;;;16.67;52.44;102456.41;4927434;29;20484;-61
2024/02/19 00:44:50;;;;;;;15.93;2.25;;;;;;;16.68;52.56;102444.63;4925289;29;20031;-60
2024/02/19 00:47:15;;;;;;;13.77;3.00;;;;;;;16.69;52.54;102443.63;4925954;28;20047;-60
2024/02/19 00:49:41;;;;;;;12.35;3.35;;;;;;;16.74;51.93;102454.94;4934869;29;20522;-60
2024/02/19 00:52:06;;;;;;;10.57;2.22;;;;;;;16.73;52.08;102455.03;4935162;29;20032;-61
2024/02/19 00:54:31;;;;;;;6.47;2.08;;;;;;;16.72;52.70;102458.75;4935219;29;20032;-60
2024/02/19 00:56:57;;;;;;;7.85;2.17;;;;;;;16.70;52.51;102448.03;4919310;29;20039;-60
2024/02/19 00:59:22;;;;;;;10.13;1.65;;;;;;;16.71;52.25;102457.88;4936287;28;20024;-60
2024/02/19 01:01:47;;;;;;;8.13;2.80;;;;;;;16.68;52.13;102444.63;4935408;29;20040;-61
2024/02/19 01:04:13;;;;;;;13.27;2.22;;;;;;;16.66;51.91;102443.91;4967022;28;20542;-60
2024/02/19 01:06:38;;;;;;;10.65;2.53;;;;;;;16.64;52.16;102448.56;4918840;29;20461;-61
2024/02/19 01:09:04;;;;;;;17.73;2.80;;;;;;;16.63;51.56;102446.84;4934900;29;20397;-61
2024/02/19 01:11:30;;;;;;;13.77;2.05;;;;;;;16.63;53.27;102452.28;4934895;29;20087;-60
2024/02/19 01:13:55;;;;;;;10.60;2.03;;;;;;;16.62;52.09;102453.25;4935027;29;20559;-60
2024/02/19 01:16:21;;;;;;;10.10;2.75;;;;;;;16.61;51.83;102451.50;4935986;28;20200;-61
2024/02/19 01:18:46;;;;;;;14.65;3.30;;;;;;;16.62;52.29;102447.84;4935794;28;20111;-61
2024/02/19 01:21:11;;;;;;;12.20;2.90;;;;;;;16.63;52.39;102449.56;4935953;28;20468;-60
2024/02/19 01:23:37;;;;;;;7.40;2.83;;;;;;;16.64;52.12;102453.97;4934702;29;20039;-60
2024/02/19 01:26:02;;;;;;;7.38;2.90;;;;;;;16.66;52.64;102445.75;4935864;28;20516;-60
2024/02/19 01:28:27;;;;;;;12.20;2.67;;;;;;;16.66;52.11;102452.00;4935636;28;20042;-61
2024/02/19 01:30:53;;;;;;;11.85;2.38;;;;;;;16.65;52.22;102461.09;4934672;29;20063;-60
2024/02/19 01:33:21;;;;;;;12.65;2.97;;;;;;;16.65;52.48;102447.56;4934212;29;20048;-61
2024/02/19 01:35:46;;;;;;;10.20;2.80;;;;;;;16.70;52.00;102458.88;4935801;28;20035;-61
2024/02/19 01:38:12;;;;;;;15.95;3.00;;;;;;;16.65;52.01;102463.81;4935283;29;20028;-60
2024/02/19 01:40:37;;;;;;;9.98;2.17;;;;;;;16.69;52.47;102459.88;4935778;28;20500;-60
2024/02/19 01:43:04;;;;;;;7.78;2.17;;;;;;;16.68;51.45;102457.28;4934343;29;20063;-60
2024/02/19 01:45:30;;;;;;;16.05;2.95;;;;;;;16.69;52.54;102465.28;4950454;29;20554;-61
2024/02/19 01:47:56;;;;;;;11.30;3.08;;;;;;;16.73;52.02;102466.72;4935597;28;20048;-60
2024/02/19 01:50:30;;;;;;;7.15;2.13;;;;;;;16.76;52.66;102477.31;4934422;29;20042;-60
2024/02/19 01:52:57;;;;;;;7.10;2.05;;;;;;;16.75;51.64;102472.88;4934380;29;20043;-60
2024/02/19 01:55:23;;;;;;;9.30;2.15;;;;;;;16.75;52.42;102474.75;4918415;29;20032;-60
2024/02/19 01:57:49;;;;;;;8.60;1.58;;;;;;;16.69;51.28;102477.97;4934379;29;20046;-60
2024/02/19 02:00:17;;;;;;;14.50;2.15;;;;;;;16.72;52.16;102480.41;4935590;28;20039;-60
2024/02/19 02:02:42;;;;;;;7.30;2.58;;;;;;;16.70;52.13;102471.53;4934549;29;20036;-60
2024/02/19 02:05:08;;;;;;;7.95;1.85;;;;;;;16.69;51.08;102484.22;4934341;29;20039;-61
2024/02/19 02:07:33;;;;;;;9.18;1.42;;;;;;;16.68;51.60;102487.91;4935542;28;20035;-61
2024/02/19 02:10:02;;;;;;;8.68;1.58;;;;;;;16.67;51.71;102478.06;4934190;29;20537;-60
2024/02/19 02:12:28;;;;;;;12.07;2.10;;;;;;;16.68;51.58;102493.31;4935463;28;20028;-60
2024/02/19 02:14:53;;;;;;;12.32;1.90;;;;;;;16.68;51.39;102496.03;4934317;29;20419;-60
2024/02/19 02:17:18;;;;;;;8.20;1.55;;;;;;;16.68;51.27;102487.91;4934424;29;20527;-60
2024/02/19 02:19:44;;;;;;;10.07;1.75;;;;;;;16.66;51.51;102492.59;4934276;29;20523;-60
2024/02/19 02:22:13;;;;;;;9.85;1.50;;;;;;;16.68;52.42;102493.31;4965994;28;20385;-60
2024/02/19 02:24:38;;;;;;;7.82;1.75;;;;;;;16.67;51.36;102494.31;4935230;28;20047;-60
2024/02/19 02:27:04;;;;;;;9.20;2.10;;;;;;;16.69;52.24;102503.19;4935176;28;20040;-61
2024/02/19 02:29:29;;;;;;;12.07;1.67;;;;;;;16.70;51.71;102496.75;4933689;29;20063;-61
2024/02/19 02:31:55;;;;;;;6.20;1.38;;;;;;;16.72;51.14;102494.78;4935954;29;20042;-61
2024/02/19 02:34:20;;;;;;;8.38;2.15;;;;;;;16.75;51.19;102499.94;4937669;29;20075;-60
2024/02/19 02:36:46;;;;;;;8.43;1.50;;;;;;;16.76;52.04;102501.66;4937597;29;20040;-61
2024/02/19 02:39:11;;;;;;;6.72;1.35;;;;;;;16.77;51.75;102500.69;4937589;29;20402;-61
2024/02/19 02:41:37;;;;;;;9.52;1.60;;;;;;;16.77;51.55;102500.69;4937643;29;20043;-61
2024/02/19 02:44:02;;;;;;;6.75;1.17;;;;;;;16.78;50.76;102496.97;4938114;29;20051;-63
2024/02/19 02:46:28;;;;;;;6.10;1.02;;;;;;;16.74;51.81;102506.34;4939048;29;20031;-61
2024/02/19 02:48:53;;;;;;;18.25;2.05;;;;;;;16.73;51.83;102507.31;4938555;29;20054;-61
2024/02/19 02:51:19;;;;;;;10.75;2.90;;;;;;;16.75;51.93;102513.47;4953217;29;20079;-61
2024/02/19 02:53:45;;;;;;;8.10;1.90;;;;;;;16.74;51.52;102514.47;4937370;29;20020;-60
2024/02/19 02:56:18;;;;;;;11.13;1.63;;;;;;;16.76;51.75;102498.09;4937383;29;20031;-61
2024/02/19 02:58:44;;;;;;;8.25;1.33;;;;;;;16.73;51.43;102504.63;4937329;29;20048;-60
2024/02/19 03:01:09;;;;;;;6.53;1.58;;;;;;;16.72;51.07;102497.47;4937377;29;20144;-61
2024/02/19 03:03:35;;;;;;;6.93;1.50;;;;;;;16.76;51.27;102495.38;4938395;29;20028;-61
2024/02/19 03:06:01;;;;;;;6.63;1.95;;;;;;;16.74;51.14;102490.13;4937173;29;20459;-61
2024/02/19 03:08:26;;;;;;;6.93;1.60;;;;;;;16.78;51.68;102502.38;4937095;29;20034;-61
2024/02/19 03:10:51;;;;;;;4.85;1.67;;;;;;;16.71;51.38;102498.47;4936966;29;20032;-61
2024/02/19 03:13:17;;;;;;;5.65;2.33;;;;;;;16.68;51.08;102496.03;4936851;29;20051;-61
2024/02/19 03:15:42;;;;;;;11.73;1.10;;;;;;;16.68;51.07;102485.22;4936959;29;20531;-60
2024/02/19 03:18:08;;;;;;;9.43;2.25;;;;;;;16.72;51.12;102500.19;4921289;29;20028;-61
2024/02/19 03:20:34;;;;;;;11.82;1.90;;;;;;;16.75;51.23;102491.81;4937083;29;20028;-60
2024/02/19 03:23:00;;;;;;;9.52;0.90;;;;;;;16.76;50.67;102492.69;4921594;29;20020;-61
2024/02/19 03:25:26;;;;;;;11.80;1.73;;;;;;;16.76;51.38;102487.25;4938507;29;20039;-61
2024/02/19 03:27:51;;;;;;;9.73;1.60;;;;;;;16.77;51.24;102489.84;4944517;29;20028;-61
2024/02/19 03:30:17;;;;;;;7.65;1.23;;;;;;;16.78;50.87;102494.25;4921389;28;20131;-61
2024/02/19 03:32:42;;;;;;;8.63;1.40;;;;;;;16.77;50.70;102489.00;4936592;29;20492;-60
2024/02/19 03:35:08;;;;;;;5.40;0.93;;;;;;;16.81;50.72;102501.25;4936241;29;20039;-61
2024/02/19 03:37:33;;;;;;;10.70;1.17;;;;;;;16.80;51.19;102500.44;4937947;29;20047;-61
2024/02/19 03:39:58;;;;;;;14.25;2.65;;;;;;;16.82;50.65;102498.44;4936927;29;20173;-61
2024/02/19 03:42:24;;;;;;;6.75;1.40;;;;;;;16.83;51.25;102500.13;4936458;29;20078;-61
2024/02/19 03:44:49;;;;;;;8.45;1.48;;;;;;;16.83;50.81;102502.84;4920641;29;20055;-61
2024/02/19 03:47:14;;;;;;;8.00;1.08;;;;;;;16.84;50.55;102501.00;4937897;29;20043;-61
2024/02/19 03:49:40;;;;;;;4.60;1.15;;;;;;;16.83;51.07;102499.31;4936327;29;20040;-61
2024/02/19 03:52:05;;;;;;;9.50;1.40;;;;;;;16.86;50.35;102499.06;4937630;29;20044;-61
2024/02/19 03:54:31;;;;;;;7.00;1.75;;;;;;;16.86;50.82;102509.88;4936348;29;20608;-60
2024/02/19 03:56:56;;;;;;;8.43;1.35;;;;;;;16.86;51.08;102504.47;4936306;29;20083;-61
2024/02/19 03:59:22;;;;;;;6.97;3.08;;;;;;;16.84;51.42;102501.00;4920563;29;20492;-61
2024/02/19 04:01:48;;;;;;;5.72;1.55;;;;;;;16.86;51.22;102513.41;4937635;29;20103;-61
2024/02/19 04:04:16;;;;;;;13.68;1.90;;;;;;;16.85;51.47;102498.19;4936116;29;20484;-60
2024/02/19 04:06:41;;;;;;;11.10;2.05;;;;;;;16.85;50.70;102503.59;4936108;29;20424;-61
2024/02/19 04:09:08;;;;;;;12.20;1.88;;;;;;;16.84;51.50;102493.75;4920131;29;20135;-61
2024/02/19 04:11:33;;;;;;;10.43;1.67;;;;;;;16.84;50.48;102501.00;4936264;29;20053;-62
2024/02/19 04:13:59;;;;;;;6.55;1.50;;;;;;;16.79;51.47;102503.25;4937146;29;20044;-62
2024/02/19 04:16:24;;;;;;;8.23;1.80;;;;;;;16.81;50.88;102504.84;4920164;29;20027;-61
2024/02/19 04:18:49;;;;;;;11.35;1.25;;;;;;;16.80;50.83;102502.28;4937164;29;20040;-60
2024/02/19 04:21:15;;;;;;;9.82;2.13;;;;;;;16.78;50.83;102491.56;4920067;29;20099;-60
2024/02/19 04:23:40;;;;;;;14.07;1.90;;;;;;;16.81;51.22;102512.94;4937138;29;20440;-61
2024/02/19 04:26:05;;;;;;;12.13;1.75;;;;;;;16.81;51.03;102506.69;4937093;29;20039;-61
2024/02/19 04:28:31;;;;;;;10.88;1.67;;;;;;;16.82;50.87;102516.53;4936912;29;20032;-61
2024/02/19 04:30:56;;;;;;;7.90;1.38;;;;;;;16.81;51.06;102502.13;4935613;29;20039;-61
2024/02/19 04:33:21;;;;;;;14.40;1.55;;;;;;;16.78;50.98;102502.38;4935346;29;20078;-61
2024/02/19 04:35:47;;;;;;;17.67;2.25;;;;;;;16.79;51.29;102493.28;4935528;29;20119;-61
2024/02/19 04:38:12;;;;;;;5.63;1.75;;;;;;;16.81;50.94;102501.25;4936839;29;20372;-61
2024/02/19 04:40:37;;;;;;;8.50;1.67;;;;;;;16.79;51.39;102487.88;4935359;29;20040;-60
2024/02/19 04:43:03;;;;;;;10.10;2.13;;;;;;;16.80;50.97;102484.19;4937078;29;20036;-61
2024/02/19 04:45:28;;;;;;;8.75;2.13;;;;;;;16.81;51.71;102483.19;4935187;29;20039;-62
2024/02/19 04:47:54;;;;;;;8.70;2.03;;;;;;;16.80;50.70;102489.59;4919343;29;20547;-61
2024/02/19 04:50:19;;;;;;;8.45;1.70;;;;;;;16.80;50.72;102489.59;4936729;29;20034;-61
2024/02/19 04:52:44;;;;;;;14.75;2.20;;;;;;;16.80;51.26;102489.59;4935246;29;20107;-61
2024/02/19 04:55:10;;;;;;;12.40;3.17;;;;;;;16.80;50.89;102489.59;4918990;29;20499;-61
2024/02/19 04:57:35;;;;;;;3.72;1.52;;;;;;;16.79;51.49;102501.41;4935220;29;20028;-61
2024/02/19 05:00:01;;;;;;;9.82;2.08;;;;;;;16.73;51.67;102490.22;4919127;29;20063;-60
2024/02/19 05:02:26;;;;;;;9.40;2.22;;;;;;;16.75;51.31;102494.53;4919126;29;20032;-61
2024/02/19 05:04:51;;;;;;;9.82;2.30;;;;;;;16.76;50.92;102493.53;4936252;29;20031;-60
2024/02/19 05:07:17;;;;;;;11.85;1.90;;;;;;;16.75;50.78;102494.53;4935109;29;20038;-61
2024/02/19 05:09:42;;;;;;;8.27;1.58;;;;;;;16.76;51.37;102495.38;4936300;29;20552;-61
2024/02/19 05:12:07;;;;;;;8.73;1.83;;;;;;;16.75;50.99;102494.53;4919085;29;20114;-61
2024/02/19 05:14:33;;;;;;;7.47;2.20;;;;;;;16.74;51.41;102500.94;4934867;29;20031;-61
2024/02/19 05:16:58;;;;;;;9.45;1.67;;;;;;;16.72;51.36;102502.06;4936076;29;20127;-60
2024/02/19 05:19:23;;;;;;;7.07;1.88;;;;;;;16.74;51.34;102506.34;4918836;29;20063;-61
2024/02/19 05:21:49;;;;;;;7.05;1.52;;;;;;;16.73;50.82;102493.78;4918778;29;20067;-60
2024/02/19 05:24:16;;;;;;;10.38;1.30;;;;;;;16.75;51.70;102510.75;4936037;29;20123;-61
2024/02/19 05:26:42;;;;;;;7.55;2.10;;;;;;;16.76;51.73;102517.91;4934605;29;20043;-61
2024/02/19 05:29:10;;;;;;;15.55;2.75;;;;;;;16.73;51.57;102504.63;4918955;29;20032;-61
2024/02/19 05:31:37;;;;;;;10.48;1.70;;;;;;;16.70;51.40;102502.16;4935893;28;20543;-61
2024/02/19 05:34:04;;;;;;;12.75;2.50;;;;;;;16.72;50.92;102502.06;4934480;29;20074;-60
2024/02/19 05:36:29;;;;;;;8.50;1.88;;;;;;;16.72;51.33;102494.78;4934622;29;20043;-61
2024/02/19 05:38:55;;;;;;;9.75;2.38;;;;;;;16.73;51.41;102507.31;4934698;29;20024;-60
2024/02/19 05:41:20;;;;;;;14.80;2.30;;;;;;;16.74;51.60;102505.47;4934449;29;20123;-60
2024/02/19 05:43:48;;;;;;;13.27;3.05;;;;;;;16.75;51.18;102504.50;4918723;29;20028;-61
2024/02/19 05:46:14;;;;;;;5.00;2.10;;;;;;;16.71;51.14;102503.91;4934299;29;20054;-61
2024/02/19 05:48:40;;;;;;;8.10;2.58;;;;;;;16.73;51.14;102504.63;4934525;29;20038;-62
2024/02/19 05:51:06;;;;;;;10.05;1.80;;;;;;;16.72;51.34;102502.88;4935611;29;20040;-61
2024/02/19 05:53:32;;;;;;;10.43;1.85;;;;;;;16.73;51.60;102501.91;4934456;29;20036;-61
2024/02/19 05:55:57;;;;;;;9.15;1.60;;;;;;;16.73;50.83;102510.03;4918894;29;20519;-61
2024/02/19 05:58:23;;;;;;;10.50;1.65;;;;;;;16.74;51.82;102497.38;4935751;29;20035;-61
2024/02/19 06:00:48;;;;;;;5.93;2.15;;;;;;;16.75;51.51;102508.03;4934417;29;20037;-61
2024/02/19 06:03:13;;;;;;;8.85;2.10;;;;;;;16.77;51.59;102510.66;4935718;29;20028;-61
2024/02/19 06:05:40;;;;;;;8.48;2.58;;;;;;;16.73;51.64;102504.63;4918677;29;20046;-61
2024/02/19 06:08:06;;;;;;;7.10;2.17;;;;;;;16.75;51.64;102499.94;4939428;29;20105;-61
2024/02/19 06:10:31;;;;;;;7.97;1.90;;;;;;;16.73;50.74;102493.78;4939641;29;20039;-61
2024/02/19 06:12:56;;;;;;;12.05;2.13;;;;;;;16.73;50.97;102493.78;4922455;29;20035;-60
2024/02/19 06:15:24;;;;;;;17.77;2.85;;;;;;;16.75;51.22;102497.22;4938334;29;20492;-61
2024/02/19 06:17:50;;;;;;;10.93;2.65;;;;;;;16.77;50.60;102508.81;4922505;29;20042;-61
2024/02/19 06:20:15;;;;;;;14.00;2.45;;;;;;;16.77;51.69;102499.81;4939439;29;20036;-60
2024/02/19 06:22:41;;;;;;;18.40;2.20;;;;;;;16.78;51.38;102502.38;4922322;29;20133;-60
2024/02/19 06:25:07;;;;;;;7.13;2.17;;;;;;;16.75;51.43;102507.22;4922188;29;20031;-61
2024/02/19 06:27:33;;;;;;;7.78;2.30;;;;;;;16.77;51.84;102514.22;4939099;29;20038;-60
2024/02/19 06:29:58;;;;;;;8.60;2.30;;;;;;;16.77;51.40;102510.66;4937797;29;20122;-61
2024/02/19 06:32:23;;;;;;;7.82;2.90;;;;;;;16.80;51.09;102521.22;4938830;29;20138;-61
2024/02/19 06:34:49;;;;;;;8.52;2.60;;;;;;;16.79;50.87;102509.53;4920839;29;20054;-61
2024/02/19 06:37:14;;;;;;;13.38;2.83;;;;;;;16.81;51.79;102518.38;4936617;29;20389;-60
2024/02/19 06:39:41;;;;;;;11.35;2.22;;;;;;;16.80;51.14;102513.09;4920620;29;20628;-61
2024/02/19 06:42:06;;;;;;;11.57;3.40;;;;;;;16.79;51.26;102520.34;4936734;29;20035;-61
2024/02/19 06:44:32;;;;;;;11.18;3.03;;;;;;;16.80;50.85;102519.38;4936370;29;20046;-60
2024/02/19 06:46:57;;;;;;;7.43;2.55;;;;;;;16.81;51.47;102512.94;4936283;29;20496;-61
2024/02/19 06:49:23;;;;;;;17.15;3.33;;;;;;;16.78;51.78;102513.22;4936361;29;20040;-61
2024/02/19 06:51:48;;;;;;;14.63;2.47;;;;;;;16.81;51.78;102506.69;4936288;29;20051;-61
2024/02/19 06:54:14;;;;;;;11.50;2.53;;;;;;;16.80;51.87;102510.38;4920422;29;20036;-61
2024/02/19 06:56:39;;;;;;;15.52;3.58;;;;;;;16.77;51.58;102500.69;4936168;29;20040;-60
2024/02/19 06:59:05;;;;;;;9.80;3.35;;;;;;;16.79;50.88;102498.69;4937379;29;20035;-61
2024/02/19 07:01:30;;;;;;;13.82;4.25;;;;;;;16.76;51.60;102515.19;4935868;29;20036;-61
2024/02/19 07:03:56;;;;;;;19.10;3.75;;;;;;;16.79;51.14;102508.66;4936101;29;20492;-61
2024/02/19 07:06:21;;;;;;;10.15;2.63;;;;;;;16.78;51.19;102515.91;4937419;29;20035;-61
2024/02/19 07:08:47;;;;;;;11.82;2.88;;;;;;;16.81;51.56;102515.66;4936319;29;20402;-60
2024/02/19 07:11:13;;;;;;;11.10;3.15;;;;;;;16.84;51.61;102511.84;4937202;29;20040;-61
2024/02/19 07:13:38;;;;;;;16.25;3.78;;;;;;;16.83;51.53;102520.97;4937306;29;20055;-61
2024/02/19 07:16:04;;;;;;;17.50;2.80;;;;;;;16.84;50.91;102512.69;4937112;29;20035;-60
2024/02/19 07:18:29;;;;;;;14.60;4.55;;;;;;;16.84;51.12;102519.97;4936663;29;20042;-61
2024/02/19 07:20:54;;;;;;;14.43;3.10;;;;;;;16.85;51.04;102514.44;4920340;29;20507;-61
2024/02/19 07:23:20;;;;;;;15.38;4.00;;;;;;;16.84;51.35;102510.00;4919790;29;20032;-61
2024/02/19 07:25:45;;;;;;;10.82;4.30;;;;;;;16.87;51.04;102501.63;4936989;29;20407;-61
2024/02/19 07:28:11;;;;;;;14.00;3.65;;;;;;;16.93;51.24;102493.97;4935625;29;20043;-61
2024/02/19 07:30:37;;;;;;;12.65;3.65;;;;;;;16.92;51.51;102497.69;4936336;29;20043;-60
2024/02/19 07:33:06;;;;;;;15.52;3.85;;;;;;;16.94;51.61;102498.41;4897335;29;1174338;-61
2024/02/19 07:35:31;;;;;;;8.45;3.33;;;;;;;16.96;51.30;102509.94;4936730;29;20036;-60
2024/02/19 07:37:57;;;;;;;10.88;3.53;;;;;;;16.97;51.57;102514.38;4936766;29;20038;-62
2024/02/19 07:40:22;;;;;;;14.00;3.33;;;;;;;16.97;51.38;102506.25;4936579;29;20039;-61
2024/02/19 07:42:48;;;;;;;13.63;4.07;;;;;;;16.98;51.77;102513.38;4937932;29;20036;-61
2024/02/19 07:45:14;;;;;;;9.50;4.47;;;;;;;16.97;51.64;102511.69;4920792;29;20062;-60
2024/02/19 07:47:39;;;;;;;16.98;3.75;;;;;;;17.00;50.87;102509.56;4938531;29;20115;-60
2024/02/19 07:50:05;;;;;;;17.30;3.42;;;;;;;17.03;51.54;102513.88;4937516;29;20526;-61
2024/02/19 07:52:30;;;;;;;11.95;3.58;;;;;;;17.02;51.57;102502.19;4920468;29;20055;-61
2024/02/19 07:54:56;;;;;;;6.47;2.80;;;;;;;17.09;50.75;102510.63;4936560;29;20087;-61
2024/02/19 07:57:21;;;;;;;12.57;3.60;;;;;;;17.10;51.38;102512.34;4936376;29;20412;-60
2024/02/19 07:59:47;;;;;;;15.82;3.95;;;;;;;17.18;51.31;102517.97;4936181;29;20461;-61
2024/02/19 08:02:12;;;;;;;15.98;3.55;;;;;;;17.21;50.71;102515.00;4936163;29;20090;-61
2024/02/19 08:04:37;;;;;;;15.52;3.42;;;;;;;17.22;51.59;102509.47;4920156;29;20032;-61
2024/02/19 08:07:03;;;;;;;13.68;3.33;;;;;;;17.25;51.12;102508.34;4937441;29;20119;-61
2024/02/19 08:09:28;;;;;;;11.25;3.13;;;;;;;17.28;51.49;102510.81;4936007;29;20469;-60
2024/02/19 08:11:57;;;;;;;12.63;3.65;;;;;;;17.31;51.53;102505.09;4936007;29;20047;-61
2024/02/19 08:14:22;;;;;;;15.35;3.65;;;;;;;17.31;51.02;102505.09;4935993;29;20522;-61
2024/02/19 08:16:51;;;;;;;13.88;4.15;;;;;;;17.36;51.47;102509.13;4935998;29;20063;-61
2024/02/19 08:19:17;;;;;;;15.45;3.58;;;;;;;17.40;51.71;102502.47;4936067;29;20030;-61
2024/02/19 08:21:43;;;;;;;9.48;3.30;;;;;;;17.43;51.73;102504.03;4920008;29;20035;-61
2024/02/19 08:24:09;;;;;;;14.90;3.95;;;;;;;17.47;51.34;102502.81;4935844;29;20035;-66
2024/02/19 08:26:34;;;;;;;11.77;3.90;;;;;;;17.49;51.73;102503.50;4935710;29;20039;-65
2024/02/19 08:29:00;;;;;;;13.60;3.17;;;;;;;17.54;51.60;102506.72;4934852;29;20035;-65
2024/02/19 08:31:27;;;;;;;16.98;4.97;;;;;;;17.59;51.12;102509.88;4935558;29;20078;-66
2024/02/19 08:33:56;;;;;;;14.93;4.25;;;;;;;17.64;50.89;102502.22;4919717;29;20140;-66
2024/02/19 08:36:21;;;;;;;11.25;3.63;;;;;;;17.73;51.28;102505.97;4935643;29;20067;-65
2024/02/19 08:38:53;;;;;;;14.93;4.32;;;;;;;17.81;51.09;102492.63;4936592;29;20106;-65
2024/02/19 08:41:19;;;;;;;15.70;4.20;;;;;;;17.89;51.17;102485.53;4935515;29;20031;-65
2024/02/19 08:43:44;;;;;;;11.38;3.90;;;;;;;18.02;51.43;102490.69;4935442;29;20036;-65
2024/02/19 08:46:10;;;;;;;17.60;4.50;;;;;;;18.15;50.68;102485.03;4935266;29;20035;-65
2024/02/19 08:48:35;;;;;;;20.02;4.68;;;;;;;18.28;50.65;102480.22;4935239;29;20136;-65
2024/02/19 08:51:01;;;;;;;14.82;5.15;;;;;;;18.48;50.13;102476.59;4936436;29;20050;-66
2024/02/19 08:53:27;;;;;;;16.73;5.30;;;;;;;18.64;50.32;102468.75;4919444;29;20564;-66
2024/02/19 08:55:53;;;;;;;19.27;5.47;;;;;;;18.81;50.42;102467.19;4935313;29;20067;-66
2024/02/19 08:58:19;;;;;;;13.25;4.82;;;;;;;19.18;49.79;102481.75;4935092;29;20060;-66
2024/02/19 09:00:44;;;;;;;21.02;6.10;;;;;;;19.39;49.75;102478.91;4935250;29;20040;-66
2024/02/19 09:03:09;;;;;;;18.70;6.55;;;;;;;19.35;50.25;102488.31;4936295;29;20052;-66
2024/02/19 09:05:38;;;;;;;14.88;5.28;;;;;;;19.31;50.00;102478.75;4935112;29;20028;-65
2024/02/19 09:08:05;;;;;;;18.90;5.53;;;;;;;19.32;49.96;102472.31;4935023;29;20090;-65
2024/02/19 09:10:30;;;;;;;14.15;4.80;;;;;;;19.28;50.10;102468.16;4934868;29;20087;-65
2024/02/19 09:12:56;;;;;;;17.50;6.53;;;;;;;19.36;49.76;102473.72;4919139;29;20513;-65
2024/02/19 09:15:21;;;;;;;20.23;7.20;;;;;;;19.49;49.97;102479.72;4936195;29;20042;-66
2024/02/19 09:17:46;;;;;;;19.33;5.95;;;;;;;19.69;49.60;102470.53;4934868;29;20051;-66
2024/02/19 09:20:12;;;;;;;16.65;5.85;;;;;;;19.86;48.84;102472.47;4935997;29;20448;-66
2024/02/19 09:22:40;;;;;;;12.18;5.65;;;;;;;20.01;49.14;102475.56;4919107;29;20036;-65
2024/02/19 09:25:05;;;;;;;15.95;5.22;;;;;;;20.24;49.38;102469.56;4935844;29;20038;-65
2024/02/19 09:27:31;;;;;;;23.80;6.10;;;;;;;20.42;48.85;102466.03;4934844;29;20122;-66
2024/02/19 09:29:56;;;;;;;18.65;7.22;;;;;;;20.79;48.46;102478.53;4934879;29;20110;-65
2024/02/19 09:32:22;;;;;;;17.45;7.70;;;;;;;21.29;48.34;102481.56;4934549;29;20057;-66
2024/02/19 09:34:48;;;;;;;16.75;6.45;;;;;;;21.14;48.04;102491.31;4934319;29;20428;-61
2024/02/19 09:37:13;;;;;;;19.95;5.82;;;;;;;20.99;48.11;102483.81;4918111;29;20571;-61
2024/02/19 09:39:39;;;;;;;10.00;5.82;;;;;;;20.89;48.43;102489.34;4934002;29;20511;-61
2024/02/19 09:42:05;;;;;;;17.98;6.03;;;;;;;20.88;48.39;102504.00;4934065;29;20039;-61
2024/02/19 09:44:31;;;;;;;13.40;5.32;;;;;;;20.72;48.35;102501.94;4934102;29;20036;-62
2024/02/19 09:47:01;;;;;;;13.20;5.68;;;;;;;20.55;48.31;102493.75;4935403;29;20163;-61
2024/02/19 09:49:28;;;;;;;12.55;5.28;;;;;;;20.41;49.20;102500.56;4935090;29;20055;-61
2024/02/19 09:51:57;;;;;;;18.05;5.88;;;;;;;20.27;49.21;102493.78;4934011;29;20494;-61
2024/02/19 09:54:24;;;;;;;12.73;5.50;;;;;;;20.18;48.64;102497.34;4933921;29;20049;-61
2024/02/19 09:56:51;;;;;;;12.15;5.13;;;;;;;20.10;48.93;102497.25;4934127;29;20052;-61
2024/02/19 09:59:16;;;;;;;21.70;6.30;;;;;;;20.10;49.32;102493.72;4935363;29;20020;-61
2024/02/19 10:01:42;;;;;;;19.65;6.28;;;;;;;20.07;48.64;102494.84;4934043;29;20042;-61
2024/02/19 10:04:07;;;;;;;15.93;5.32;;;;;;;20.00;48.58;102499.19;4933963;29;20035;-61
2024/02/19 10:06:36;;;;;;;11.02;4.95;;;;;;;19.92;48.99;102492.78;4934232;29;20016;-62
2024/02/19 10:09:06;;;;;;;13.25;5.18;;;;;;;19.92;48.84;102500.94;4918245;29;20403;-61
2024/02/19 10:11:35;;;;;;;16.48;5.75;;;;;;;19.83;49.12;102499.97;4934182;29;20361;-60
2024/02/19 10:14:02;;;;;;;18.65;5.25;;;;;;;19.79;49.34;102493.13;4933846;29;20059;-61
2024/02/19 10:16:29;;;;;;;14.75;5.43;;;;;;;19.81;49.00;102512.84;4934386;29;20111;-61
2024/02/19 10:19:07;;;;;;;13.18;5.75;;;;;;;19.76;49.09;102498.84;4934322;29;20066;-61
2024/02/19 10:21:33;;;;;;;12.35;4.93;;;;;;;19.73;49.10;102504.59;4935481;29;20034;-61
2024/02/19 10:23:58;;;;;;;18.98;5.32;;;;;;;19.73;48.94;102493.69;4934083;29;20479;-61
2024/02/19 10:26:24;;;;;;;16.55;4.70;;;;;;;19.74;48.96;102484.53;4935328;29;20095;-62
2024/02/19 10:28:54;;;;;;;10.35;5.32;;;;;;;19.69;48.79;102500.44;4918072;29;20040;-61
2024/02/19 10:31:20;;;;;;;14.82;5.65;;;;;;;19.63;48.81;102495.56;4933873;29;20122;-61
2024/02/19 10:33:45;;;;;;;13.82;5.88;;;;;;;19.56;49.23;102489.03;4933559;29;20512;-61
2024/02/19 10:36:13;;;;;;;11.88;4.35;;;;;;;19.49;48.88;102485.16;4933626;29;20050;-61
2024/02/19 10:38:39;;;;;;;17.80;4.70;;;;;;;19.49;48.97;102496.03;4933869;29;20167;-61
2024/02/19 10:41:04;;;;;;;11.85;4.35;;;;;;;19.47;48.73;102498.06;4934637;29;20032;-61
2024/02/19 10:43:30;;;;;;;14.75;4.35;;;;;;;19.42;48.70;102489.47;4917676;29;20047;-61
2024/02/19 10:45:56;;;;;;;9.18;3.70;;;;;;;19.43;48.81;102496.66;4917606;29;20031;-61
2024/02/19 10:48:21;;;;;;;9.02;3.70;;;;;;;19.43;49.06;102502.91;4933559;29;20040;-62
2024/02/19 10:50:50;;;;;;;14.82;4.18;;;;;;;19.44;48.81;102495.63;4933637;29;20027;-61
2024/02/19 10:53:17;;;;;;;7.38;3.50;;;;;;;19.46;48.98;102501.75;4937147;29;20051;-62
2024/02/19 10:55:43;;;;;;;13.63;4.10;;;;;;;19.47;48.99;102500.78;4938321;29;20043;-60
2024/02/19 10:58:14;;;;;;;11.00;3.85;;;;;;;19.52;48.83;102501.19;4937089;29;20357;-61
2024/02/19 11:00:41;;;;;;;8.90;3.40;;;;;;;19.52;49.27;102496.59;4937151;29;20035;-61
2024/02/19 11:03:07;;;;;;;12.57;3.28;;;;;;;19.47;48.40;102495.34;4920200;29;20457;-61
2024/02/19 11:05:43;;;;;;;14.80;4.85;;;;;;;19.48;49.46;102494.34;4918216;29;20119;-61
2024/02/19 11:08:21;;;;;;;15.32;4.38;;;;;;;19.51;49.20;102497.63;4918112;29;20036;-61
2024/02/19 11:10:47;;;;;;;13.48;3.25;;;;;;;19.49;48.82;102490.59;4918166;29;20040;-61
2024/02/19 11:13:14;;;;;;;13.35;4.30;;;;;;;19.46;48.46;102496.31;4918038;29;20036;-60